Antigo, Wisconsin
Current Conditions -  °F | °C
As of 10:10 AM on Monday 24 Nov 2014 (Local Time) from KAIG Reporting Station
Drizzle Drizzle  
Wind Chill: -4°   Ceiling: 800
Heat Index:   Visibility: 10mi
Dew Point:   Wind: 13mph
Humidity: 100%   Direction: 340°NNW
Pressure: 29.08"   Gusts: 21mph
Location:  45.14°N, 89.15°W
Report Text: KAIG 241610Z AUTO 34011G18KT 10SM DZ OVC008 01/01 A2908 RMK AO2 T00130013
Loading
Personal Weather Stations






























Interactive Weather Map New forecast layout! Learn more

10-Day Weather Forecast

Advertisements
Track Severe Weather on mobile